sensor_id;sensor_type;location;lat;lon;timestamp;P1;durP1;ratioP1;P2;durP2;ratioP2
37205;SDS011;23099;42.636;23.198;2022-10-24T00:02:02;10.95;;;4.93;;
37205;SDS011;23099;42.636;23.198;2022-10-24T00:04:29;13.55;;;5.55;;
37205;SDS011;23099;42.636;23.198;2022-10-24T00:06:56;11.05;;;5.00;;
37205;SDS011;23099;42.636;23.198;2022-10-24T00:09:23;9.85;;;4.55;;
37205;SDS011;23099;42.636;23.198;2022-10-24T00:11:49;13.38;;;3.80;;
37205;SDS011;23099;42.636;23.198;2022-10-24T00:14:16;11.05;;;4.15;;
37205;SDS011;23099;42.636;23.198;2022-10-24T00:16:44;9.00;;;3.55;;
37205;SDS011;23099;42.636;23.198;2022-10-24T00:19:11;8.50;;;2.88;;
37205;SDS011;23099;42.636;23.198;2022-10-24T00:21:38;11.88;;;3.75;;
37205;SDS011;23099;42.636;23.198;2022-10-24T00:24:05;9.50;;;3.00;;
37205;SDS011;23099;42.636;23.198;2022-10-24T00:26:33;12.35;;;6.78;;
37205;SDS011;23099;42.636;23.198;2022-10-24T00:29:00;10.35;;;4.53;;
37205;SDS011;23099;42.636;23.198;2022-10-24T00:31:27;7.00;;;3.30;;
37205;SDS011;23099;42.636;23.198;2022-10-24T00:33:56;9.05;;;3.33;;
37205;SDS011;23099;42.636;23.198;2022-10-24T00:36:24;10.40;;;4.05;;
37205;SDS011;23099;42.636;23.198;2022-10-24T00:38:52;8.70;;;3.80;;
37205;SDS011;23099;42.636;23.198;2022-10-24T00:41:21;13.63;;;4.57;;
37205;SDS011;23099;42.636;23.198;2022-10-24T00:43:49;9.30;;;3.47;;
37205;SDS011;23099;42.636;23.198;2022-10-24T00:46:16;12.00;;;6.00;;
37205;SDS011;23099;42.636;23.198;2022-10-24T00:48:44;9.52;;;3.75;;
37205;SDS011;23099;42.636;23.198;2022-10-24T00:51:15;9.23;;;3.13;;
37205;SDS011;23099;42.636;23.198;2022-10-24T00:53:49;10.05;;;3.22;;
37205;SDS011;23099;42.636;23.198;2022-10-24T00:56:18;9.95;;;3.47;;
37205;SDS011;23099;42.636;23.198;2022-10-24T00:58:46;8.43;;;3.10;;
37205;SDS011;23099;42.636;23.198;2022-10-24T01:01:15;10.45;;;3.00;;
37205;SDS011;23099;42.636;23.198;2022-10-24T01:03:42;9.02;;;2.90;;
37205;SDS011;23099;42.636;23.198;2022-10-24T01:09:01;9.52;;;4.35;;
37205;SDS011;23099;42.636;23.198;2022-10-24T01:11:38;10.23;;;4.20;;
37205;SDS011;23099;42.636;23.198;2022-10-24T01:14:18;9.65;;;3.22;;
37205;SDS011;23099;42.636;23.198;2022-10-24T01:16:59;10.38;;;3.45;;
37205;SDS011;23099;42.636;23.198;2022-10-24T01:19:38;9.02;;;4.10;;
37205;SDS011;23099;42.636;23.198;2022-10-24T01:22:26;8.27;;;3.47;;
37205;SDS011;23099;42.636;23.198;2022-10-24T01:25:02;11.70;;;3.78;;
37205;SDS011;23099;42.636;23.198;2022-10-24T01:27:40;9.38;;;3.47;;
37205;SDS011;23099;42.636;23.198;2022-10-24T01:30:17;10.93;;;3.38;;
37205;SDS011;23099;42.636;23.198;2022-10-24T01:32:46;9.88;;;4.70;;
37205;SDS011;23099;42.636;23.198;2022-10-24T01:35:22;13.02;;;4.95;;
37205;SDS011;23099;42.636;23.198;2022-10-24T01:38:00;8.55;;;3.20;;
37205;SDS011;23099;42.636;23.198;2022-10-24T01:40:32;11.48;;;4.43;;
37205;SDS011;23099;42.636;23.198;2022-10-24T01:43:02;11.30;;;4.60;;
37205;SDS011;23099;42.636;23.198;2022-10-24T01:45:35;10.93;;;4.00;;
37205;SDS011;23099;42.636;23.198;2022-10-24T01:48:05;10.40;;;3.85;;
37205;SDS011;23099;42.636;23.198;2022-10-24T01:50:35;9.52;;;3.33;;
37205;SDS011;23099;42.636;23.198;2022-10-24T01:53:04;9.13;;;4.22;;
37205;SDS011;23099;42.636;23.198;2022-10-24T01:55:33;13.88;;;4.78;;
37205;SDS011;23099;42.636;23.198;2022-10-24T01:58:03;10.70;;;4.47;;
37205;SDS011;23099;42.636;23.198;2022-10-24T02:00:31;10.82;;;4.63;;
37205;SDS011;23099;42.636;23.198;2022-10-24T02:02:59;12.98;;;4.72;;
37205;SDS011;23099;42.636;23.198;2022-10-24T02:05:31;15.70;;;3.88;;
37205;SDS011;23099;42.636;23.198;2022-10-24T02:08:03;11.00;;;4.28;;
37205;SDS011;23099;42.636;23.198;2022-10-24T02:10:33;10.68;;;4.10;;
37205;SDS011;23099;42.636;23.198;2022-10-24T02:13:04;10.70;;;3.92;;
37205;SDS011;23099;42.636;23.198;2022-10-24T02:15:35;10.43;;;4.70;;
37205;SDS011;23099;42.636;23.198;2022-10-24T02:18:07;18.45;;;8.75;;
37205;SDS011;23099;42.636;23.198;2022-10-24T02:20:36;14.75;;;7.90;;
37205;SDS011;23099;42.636;23.198;2022-10-24T02:23:09;11.10;;;4.47;;
37205;SDS011;23099;42.636;23.198;2022-10-24T02:25:44;12.88;;;4.15;;
37205;SDS011;23099;42.636;23.198;2022-10-24T02:28:17;11.20;;;4.40;;
37205;SDS011;23099;42.636;23.198;2022-10-24T02:30:48;11.00;;;4.35;;
37205;SDS011;23099;42.636;23.198;2022-10-24T02:33:20;8.70;;;3.80;;
37205;SDS011;23099;42.636;23.198;2022-10-24T02:35:47;10.15;;;3.67;;
37205;SDS011;23099;42.636;23.198;2022-10-24T02:38:17;10.38;;;3.40;;
37205;SDS011;23099;42.636;23.198;2022-10-24T02:40:50;10.43;;;3.53;;
37205;SDS011;23099;42.636;23.198;2022-10-24T02:43:19;10.75;;;4.07;;
37205;SDS011;23099;42.636;23.198;2022-10-24T02:45:47;12.98;;;4.32;;
37205;SDS011;23099;42.636;23.198;2022-10-24T02:48:16;13.55;;;3.72;;
37205;SDS011;23099;42.636;23.198;2022-10-24T02:50:48;12.68;;;3.97;;
37205;SDS011;23099;42.636;23.198;2022-10-24T02:55:44;16.65;;;3.90;;
37205;SDS011;23099;42.636;23.198;2022-10-24T02:58:11;8.60;;;3.67;;
37205;SDS011;23099;42.636;23.198;2022-10-24T03:00:38;11.73;;;6.78;;
37205;SDS011;23099;42.636;23.198;2022-10-24T03:03:04;13.68;;;6.18;;
37205;SDS011;23099;42.636;23.198;2022-10-24T03:05:31;15.13;;;7.47;;
37205;SDS011;23099;42.636;23.198;2022-10-24T03:07:59;13.13;;;6.05;;
37205;SDS011;23099;42.636;23.198;2022-10-24T03:10:26;10.10;;;3.50;;
37205;SDS011;23099;42.636;23.198;2022-10-24T03:12:53;9.68;;;3.92;;
37205;SDS011;23099;42.636;23.198;2022-10-24T03:15:19;11.82;;;3.55;;
37205;SDS011;23099;42.636;23.198;2022-10-24T03:17:46;9.00;;;4.15;;
37205;SDS011;23099;42.636;23.198;2022-10-24T03:20:13;13.60;;;4.10;;
37205;SDS011;23099;42.636;23.198;2022-10-24T03:22:40;12.30;;;4.15;;
37205;SDS011;23099;42.636;23.198;2022-10-24T03:25:08;16.25;;;5.65;;
37205;SDS011;23099;42.636;23.198;2022-10-24T03:27:36;15.98;;;5.28;;
37205;SDS011;23099;42.636;23.198;2022-10-24T03:30:03;13.98;;;4.65;;
37205;SDS011;23099;42.636;23.198;2022-10-24T03:32:31;15.35;;;4.40;;
37205;SDS011;23099;42.636;23.198;2022-10-24T03:34:58;10.52;;;4.28;;
37205;SDS011;23099;42.636;23.198;2022-10-24T03:37:25;13.02;;;4.95;;
37205;SDS011;23099;42.636;23.198;2022-10-24T03:39:51;11.45;;;4.10;;
37205;SDS011;23099;42.636;23.198;2022-10-24T03:42:19;13.48;;;4.22;;
37205;SDS011;23099;42.636;23.198;2022-10-24T03:44:46;15.75;;;4.78;;
37205;SDS011;23099;42.636;23.198;2022-10-24T03:47:13;13.98;;;4.75;;
37205;SDS011;23099;42.636;23.198;2022-10-24T03:49:40;14.13;;;4.35;;
37205;SDS011;23099;42.636;23.198;2022-10-24T03:52:06;14.13;;;4.72;;
37205;SDS011;23099;42.636;23.198;2022-10-24T03:54:33;9.70;;;3.80;;
37205;SDS011;23099;42.636;23.198;2022-10-24T03:57:00;14.27;;;3.97;;
37205;SDS011;23099;42.636;23.198;2022-10-24T03:59:29;14.65;;;6.15;;
37205;SDS011;23099;42.636;23.198;2022-10-24T04:01:55;14.98;;;4.90;;
37205;SDS011;23099;42.636;23.198;2022-10-24T04:04:23;12.60;;;4.20;;
37205;SDS011;23099;42.636;23.198;2022-10-24T04:06:50;13.55;;;5.25;;
37205;SDS011;23099;42.636;23.198;2022-10-24T04:09:17;12.73;;;4.82;;
37205;SDS011;23099;42.636;23.198;2022-10-24T04:11:45;14.02;;;5.18;;
37205;SDS011;23099;42.636;23.198;2022-10-24T04:14:12;12.02;;;4.25;;
37205;SDS011;23099;42.636;23.198;2022-10-24T04:16:40;16.17;;;4.80;;
37205;SDS011;23099;42.636;23.198;2022-10-24T04:19:07;12.23;;;4.10;;
37205;SDS011;23099;42.636;23.198;2022-10-24T04:21:34;17.45;;;8.90;;
37205;SDS011;23099;42.636;23.198;2022-10-24T04:24:01;17.88;;;8.88;;
37205;SDS011;23099;42.636;23.198;2022-10-24T04:26:28;18.73;;;8.23;;
37205;SDS011;23099;42.636;23.198;2022-10-24T04:28:55;20.23;;;8.73;;
37205;SDS011;23099;42.636;23.198;2022-10-24T04:31:21;12.98;;;5.38;;
37205;SDS011;23099;42.636;23.198;2022-10-24T04:33:49;10.43;;;4.47;;
37205;SDS011;23099;42.636;23.198;2022-10-24T04:36:16;13.65;;;5.78;;
37205;SDS011;23099;42.636;23.198;2022-10-24T04:38:43;10.75;;;5.00;;
37205;SDS011;23099;42.636;23.198;2022-10-24T04:41:10;12.27;;;5.00;;
37205;SDS011;23099;42.636;23.198;2022-10-24T04:43:36;15.20;;;5.00;;
37205;SDS011;23099;42.636;23.198;2022-10-24T04:46:03;15.35;;;4.82;;
37205;SDS011;23099;42.636;23.198;2022-10-24T04:48:30;23.63;;;5.45;;
37205;SDS011;23099;42.636;23.198;2022-10-24T04:50:58;13.73;;;5.65;;
37205;SDS011;23099;42.636;23.198;2022-10-24T04:53:25;17.45;;;5.43;;
37205;SDS011;23099;42.636;23.198;2022-10-24T04:55:52;15.45;;;5.75;;
37205;SDS011;23099;42.636;23.198;2022-10-24T04:58:18;19.70;;;6.10;;
37205;SDS011;23099;42.636;23.198;2022-10-24T05:00:46;21.55;;;7.75;;
37205;SDS011;23099;42.636;23.198;2022-10-24T05:03:14;17.15;;;6.13;;
37205;SDS011;23099;42.636;23.198;2022-10-24T05:05:42;16.65;;;6.20;;
37205;SDS011;23099;42.636;23.198;2022-10-24T05:08:10;19.63;;;6.20;;
37205;SDS011;23099;42.636;23.198;2022-10-24T05:10:37;14.10;;;5.97;;
37205;SDS011;23099;42.636;23.198;2022-10-24T05:13:04;22.02;;;6.60;;
37205;SDS011;23099;42.636;23.198;2022-10-24T05:15:31;14.07;;;5.82;;
37205;SDS011;23099;42.636;23.198;2022-10-24T05:17:58;17.00;;;6.15;;
37205;SDS011;23099;42.636;23.198;2022-10-24T05:20:25;19.30;;;6.90;;
37205;SDS011;23099;42.636;23.198;2022-10-24T05:22:52;14.65;;;6.75;;
37205;SDS011;23099;42.636;23.198;2022-10-24T05:25:20;18.65;;;8.25;;
37205;SDS011;23099;42.636;23.198;2022-10-24T05:27:46;20.63;;;9.10;;
37205;SDS011;23099;42.636;23.198;2022-10-24T05:30:13;61.30;;;33.85;;
37205;SDS011;23099;42.636;23.198;2022-10-24T05:32:40;43.45;;;22.38;;
37205;SDS011;23099;42.636;23.198;2022-10-24T05:35:07;43.85;;;20.75;;
37205;SDS011;23099;42.636;23.198;2022-10-24T05:37:34;36.35;;;19.42;;
37205;SDS011;23099;42.636;23.198;2022-10-24T05:40:03;29.73;;;15.02;;
37205;SDS011;23099;42.636;23.198;2022-10-24T05:42:32;25.95;;;13.07;;
37205;SDS011;23099;42.636;23.198;2022-10-24T05:44:58;24.20;;;9.15;;
37205;SDS011;23099;42.636;23.198;2022-10-24T05:47:25;17.75;;;7.78;;
37205;SDS011;23099;42.636;23.198;2022-10-24T05:49:52;21.75;;;8.07;;
37205;SDS011;23099;42.636;23.198;2022-10-24T05:52:18;22.27;;;8.18;;
37205;SDS011;23099;42.636;23.198;2022-10-24T05:54:45;17.95;;;6.82;;
37205;SDS011;23099;42.636;23.198;2022-10-24T05:57:12;22.08;;;9.38;;
37205;SDS011;23099;42.636;23.198;2022-10-24T05:59:40;19.00;;;8.50;;
37205;SDS011;23099;42.636;23.198;2022-10-24T06:02:08;18.88;;;7.03;;
37205;SDS011;23099;42.636;23.198;2022-10-24T06:04:38;16.63;;;7.05;;
37205;SDS011;23099;42.636;23.198;2022-10-24T06:07:05;16.35;;;6.43;;
37205;SDS011;23099;42.636;23.198;2022-10-24T06:09:32;16.88;;;6.88;;
37205;SDS011;23099;42.636;23.198;2022-10-24T06:11:58;16.33;;;6.45;;
37205;SDS011;23099;42.636;23.198;2022-10-24T06:14:26;20.83;;;6.88;;
37205;SDS011;23099;42.636;23.198;2022-10-24T06:16:54;16.53;;;7.30;;
37205;SDS011;23099;42.636;23.198;2022-10-24T06:19:20;19.10;;;7.50;;
37205;SDS011;23099;42.636;23.198;2022-10-24T06:21:47;17.58;;;7.30;;
37205;SDS011;23099;42.636;23.198;2022-10-24T06:24:14;21.73;;;8.38;;
37205;SDS011;23099;42.636;23.198;2022-10-24T06:26:41;39.55;;;9.25;;
37205;SDS011;23099;42.636;23.198;2022-10-24T06:29:07;28.10;;;9.43;;
37205;SDS011;23099;42.636;23.198;2022-10-24T06:31:34;28.90;;;9.00;;
37205;SDS011;23099;42.636;23.198;2022-10-24T06:34:04;26.10;;;8.52;;
37205;SDS011;23099;42.636;23.198;2022-10-24T06:36:30;24.75;;;8.82;;
37205;SDS011;23099;42.636;23.198;2022-10-24T06:38:57;24.98;;;8.80;;
37205;SDS011;23099;42.636;23.198;2022-10-24T06:41:24;34.70;;;8.45;;
37205;SDS011;23099;42.636;23.198;2022-10-24T06:43:50;25.27;;;8.57;;
37205;SDS011;23099;42.636;23.198;2022-10-24T06:46:18;21.60;;;8.27;;
37205;SDS011;23099;42.636;23.198;2022-10-24T06:48:47;23.63;;;8.10;;
37205;SDS011;23099;42.636;23.198;2022-10-24T06:51:15;18.10;;;7.57;;
37205;SDS011;23099;42.636;23.198;2022-10-24T06:53:42;18.30;;;8.07;;
37205;SDS011;23099;42.636;23.198;2022-10-24T06:56:08;19.90;;;7.70;;
37205;SDS011;23099;42.636;23.198;2022-10-24T06:58:37;25.67;;;8.27;;
37205;SDS011;23099;42.636;23.198;2022-10-24T07:01:06;27.05;;;8.27;;
37205;SDS011;23099;42.636;23.198;2022-10-24T07:03:34;19.77;;;7.40;;
37205;SDS011;23099;42.636;23.198;2022-10-24T07:06:04;23.50;;;8.05;;
37205;SDS011;23099;42.636;23.198;2022-10-24T07:08:33;21.08;;;8.35;;
37205;SDS011;23099;42.636;23.198;2022-10-24T07:11:00;24.23;;;8.20;;
37205;SDS011;23099;42.636;23.198;2022-10-24T07:13:27;24.80;;;9.50;;
37205;SDS011;23099;42.636;23.198;2022-10-24T07:15:54;25.80;;;10.23;;
37205;SDS011;23099;42.636;23.198;2022-10-24T07:18:21;25.20;;;9.27;;
37205;SDS011;23099;42.636;23.198;2022-10-24T07:20:47;26.38;;;8.52;;
37205;SDS011;23099;42.636;23.198;2022-10-24T07:23:14;24.02;;;9.02;;
37205;SDS011;23099;42.636;23.198;2022-10-24T07:25:42;27.42;;;8.90;;
37205;SDS011;23099;42.636;23.198;2022-10-24T07:28:10;23.58;;;8.45;;
37205;SDS011;23099;42.636;23.198;2022-10-24T07:30:38;25.17;;;8.43;;
37205;SDS011;23099;42.636;23.198;2022-10-24T07:33:05;21.85;;;7.18;;
37205;SDS011;23099;42.636;23.198;2022-10-24T07:35:32;28.10;;;7.78;;
37205;SDS011;23099;42.636;23.198;2022-10-24T07:37:58;22.38;;;7.40;;
37205;SDS011;23099;42.636;23.198;2022-10-24T07:40:25;29.58;;;8.32;;
37205;SDS011;23099;42.636;23.198;2022-10-24T07:42:53;22.58;;;6.72;;
37205;SDS011;23099;42.636;23.198;2022-10-24T07:45:20;20.08;;;7.38;;
37205;SDS011;23099;42.636;23.198;2022-10-24T07:47:46;21.58;;;7.20;;
37205;SDS011;23099;42.636;23.198;2022-10-24T07:50:13;23.50;;;7.00;;
37205;SDS011;23099;42.636;23.198;2022-10-24T07:52:41;23.75;;;7.63;;
37205;SDS011;23099;42.636;23.198;2022-10-24T07:55:08;21.33;;;6.97;;
37205;SDS011;23099;42.636;23.198;2022-10-24T07:57:35;19.00;;;6.22;;
37205;SDS011;23099;42.636;23.198;2022-10-24T08:00:04;20.38;;;6.80;;
37205;SDS011;23099;42.636;23.198;2022-10-24T08:02:31;19.00;;;6.25;;
37205;SDS011;23099;42.636;23.198;2022-10-24T08:04:58;20.67;;;7.70;;
37205;SDS011;23099;42.636;23.198;2022-10-24T08:07:25;21.73;;;7.05;;
37205;SDS011;23099;42.636;23.198;2022-10-24T08:09:51;24.88;;;8.00;;
37205;SDS011;23099;42.636;23.198;2022-10-24T08:12:18;24.60;;;7.47;;
37205;SDS011;23099;42.636;23.198;2022-10-24T08:14:45;23.65;;;7.70;;
37205;SDS011;23099;42.636;23.198;2022-10-24T08:17:13;23.25;;;7.65;;
37205;SDS011;23099;42.636;23.198;2022-10-24T08:19:42;44.15;;;13.63;;
37205;SDS011;23099;42.636;23.198;2022-10-24T08:22:09;27.15;;;7.85;;
37205;SDS011;23099;42.636;23.198;2022-10-24T08:24:36;29.30;;;8.55;;
37205;SDS011;23099;42.636;23.198;2022-10-24T08:27:03;25.85;;;7.47;;
37205;SDS011;23099;42.636;23.198;2022-10-24T08:29:29;42.10;;;11.90;;
37205;SDS011;23099;42.636;23.198;2022-10-24T08:31:56;20.25;;;7.25;;
37205;SDS011;23099;42.636;23.198;2022-10-24T08:34:24;22.02;;;7.13;;
37205;SDS011;23099;42.636;23.198;2022-10-24T08:39:18;32.50;;;7.38;;
37205;SDS011;23099;42.636;23.198;2022-10-24T08:41:45;38.78;;;10.07;;
37205;SDS011;23099;42.636;23.198;2022-10-24T08:44:19;37.72;;;12.25;;
37205;SDS011;23099;42.636;23.198;2022-10-24T08:46:51;32.47;;;10.07;;
37205;SDS011;23099;42.636;23.198;2022-10-24T08:49:27;35.45;;;11.50;;
37205;SDS011;23099;42.636;23.198;2022-10-24T08:51:59;28.38;;;7.03;;
37205;SDS011;23099;42.636;23.198;2022-10-24T08:54:29;42.13;;;12.13;;
37205;SDS011;23099;42.636;23.198;2022-10-24T08:57:02;46.70;;;13.63;;
37205;SDS011;23099;42.636;23.198;2022-10-24T08:59:29;26.25;;;6.20;;
37205;SDS011;23099;42.636;23.198;2022-10-24T09:01:59;37.80;;;10.30;;
37205;SDS011;23099;42.636;23.198;2022-10-24T09:04:33;25.83;;;9.63;;
37205;SDS011;23099;42.636;23.198;2022-10-24T09:07:05;27.88;;;6.70;;
37205;SDS011;23099;42.636;23.198;2022-10-24T09:09:41;25.95;;;4.82;;
37205;SDS011;23099;42.636;23.198;2022-10-24T09:12:12;18.67;;;2.30;;
37205;SDS011;23099;42.636;23.198;2022-10-24T09:14:41;40.67;;;11.27;;
37205;SDS011;23099;42.636;23.198;2022-10-24T09:17:10;19.23;;;2.80;;
37205;SDS011;23099;42.636;23.198;2022-10-24T09:19:43;21.00;;;4.20;;
37205;SDS011;23099;42.636;23.198;2022-10-24T09:22:15;35.17;;;8.82;;
37205;SDS011;23099;42.636;23.198;2022-10-24T09:24:43;20.30;;;2.60;;
37205;SDS011;23099;42.636;23.198;2022-10-24T09:27:13;15.07;;;2.47;;
37205;SDS011;23099;42.636;23.198;2022-10-24T09:29:42;19.30;;;4.05;;
37205;SDS011;23099;42.636;23.198;2022-10-24T09:32:12;19.05;;;3.55;;
37205;SDS011;23099;42.636;23.198;2022-10-24T09:34:41;24.63;;;4.30;;
37205;SDS011;23099;42.636;23.198;2022-10-24T09:40:07;16.17;;;2.78;;
37205;SDS011;23099;42.636;23.198;2022-10-24T09:42:39;19.33;;;3.10;;
37205;SDS011;23099;42.636;23.198;2022-10-24T09:45:19;16.73;;;2.60;;
37205;SDS011;23099;42.636;23.198;2022-10-24T09:47:55;20.63;;;3.03;;
37205;SDS011;23099;42.636;23.198;2022-10-24T09:50:23;17.05;;;3.20;;
37205;SDS011;23099;42.636;23.198;2022-10-24T09:52:52;19.80;;;2.92;;
37205;SDS011;23099;42.636;23.198;2022-10-24T09:55:23;17.55;;;3.40;;
37205;SDS011;23099;42.636;23.198;2022-10-24T09:57:53;17.70;;;2.80;;
37205;SDS011;23099;42.636;23.198;2022-10-24T10:00:23;22.88;;;5.30;;
37205;SDS011;23099;42.636;23.198;2022-10-24T10:03:02;21.92;;;2.38;;
37205;SDS011;23099;42.636;23.198;2022-10-24T10:05:43;14.52;;;2.30;;
37205;SDS011;23099;42.636;23.198;2022-10-24T10:08:17;20.35;;;3.08;;
37205;SDS011;23099;42.636;23.198;2022-10-24T10:10:56;14.07;;;1.88;;
37205;SDS011;23099;42.636;23.198;2022-10-24T10:13:25;13.60;;;2.22;;
37205;SDS011;23099;42.636;23.198;2022-10-24T10:15:54;22.58;;;2.30;;
37205;SDS011;23099;42.636;23.198;2022-10-24T10:18:24;20.58;;;2.35;;
37205;SDS011;23099;42.636;23.198;2022-10-24T10:21:01;26.10;;;2.45;;
37205;SDS011;23099;42.636;23.198;2022-10-24T10:23:35;15.68;;;2.42;;
37205;SDS011;23099;42.636;23.198;2022-10-24T10:26:06;15.68;;;2.20;;
37205;SDS011;23099;42.636;23.198;2022-10-24T10:28:40;18.83;;;3.88;;
37205;SDS011;23099;42.636;23.198;2022-10-24T10:31:10;23.38;;;5.25;;
37205;SDS011;23099;42.636;23.198;2022-10-24T10:33:40;19.50;;;2.60;;
37205;SDS011;23099;42.636;23.198;2022-10-24T10:36:14;22.77;;;3.47;;
37205;SDS011;23099;42.636;23.198;2022-10-24T10:38:52;13.32;;;2.03;;
37205;SDS011;23099;42.636;23.198;2022-10-24T10:41:40;18.77;;;2.15;;
37205;SDS011;23099;42.636;23.198;2022-10-24T10:44:21;17.08;;;2.70;;
37205;SDS011;23099;42.636;23.198;2022-10-24T10:47:05;22.60;;;3.45;;
37205;SDS011;23099;42.636;23.198;2022-10-24T10:49:37;13.95;;;2.03;;
37205;SDS011;23099;42.636;23.198;2022-10-24T10:52:06;17.38;;;2.30;;
37205;SDS011;23099;42.636;23.198;2022-10-24T10:54:43;19.40;;;3.03;;
37205;SDS011;23099;42.636;23.198;2022-10-24T10:57:21;16.58;;;2.63;;
37205;SDS011;23099;42.636;23.198;2022-10-24T10:59:56;16.38;;;2.85;;
37205;SDS011;23099;42.636;23.198;2022-10-24T11:02:40;14.05;;;1.92;;
37205;SDS011;23099;42.636;23.198;2022-10-24T11:05:23;19.63;;;2.67;;
37205;SDS011;23099;42.636;23.198;2022-10-24T11:07:59;16.38;;;2.13;;
37205;SDS011;23099;42.636;23.198;2022-10-24T11:10:36;18.65;;;2.70;;
37205;SDS011;23099;42.636;23.198;2022-10-24T11:13:10;20.23;;;3.40;;
37205;SDS011;23099;42.636;23.198;2022-10-24T11:15:42;19.27;;;2.78;;
37205;SDS011;23099;42.636;23.198;2022-10-24T11:18:17;13.25;;;2.15;;
37205;SDS011;23099;42.636;23.198;2022-10-24T11:20:51;23.60;;;2.10;;
37205;SDS011;23099;42.636;23.198;2022-10-24T11:23:24;22.13;;;2.90;;
37205;SDS011;23099;42.636;23.198;2022-10-24T11:25:57;17.70;;;2.63;;
37205;SDS011;23099;42.636;23.198;2022-10-24T11:28:28;23.90;;;2.92;;
37205;SDS011;23099;42.636;23.198;2022-10-24T11:30:59;15.88;;;2.17;;
37205;SDS011;23099;42.636;23.198;2022-10-24T11:33:31;19.08;;;2.60;;
37205;SDS011;23099;42.636;23.198;2022-10-24T11:36:10;20.98;;;2.80;;
37205;SDS011;23099;42.636;23.198;2022-10-24T11:38:45;15.98;;;2.33;;
37205;SDS011;23099;42.636;23.198;2022-10-24T11:41:30;18.10;;;2.67;;
37205;SDS011;23099;42.636;23.198;2022-10-24T11:44:05;22.02;;;3.05;;
37205;SDS011;23099;42.636;23.198;2022-10-24T11:46:41;19.80;;;2.20;;
37205;SDS011;23099;42.636;23.198;2022-10-24T11:49:11;19.27;;;3.25;;
37205;SDS011;23099;42.636;23.198;2022-10-24T11:51:45;17.05;;;2.40;;
37205;SDS011;23099;42.636;23.198;2022-10-24T11:54:17;26.45;;;2.78;;
37205;SDS011;23099;42.636;23.198;2022-10-24T11:56:49;16.85;;;2.58;;
37205;SDS011;23099;42.636;23.198;2022-10-24T11:59:19;21.73;;;2.75;;
37205;SDS011;23099;42.636;23.198;2022-10-24T12:05:11;24.08;;;2.83;;
37205;SDS011;23099;42.636;23.198;2022-10-24T12:08:05;19.70;;;2.97;;
37205;SDS011;23099;42.636;23.198;2022-10-24T12:10:51;31.17;;;4.00;;
37205;SDS011;23099;42.636;23.198;2022-10-24T12:13:38;20.67;;;2.50;;
37205;SDS011;23099;42.636;23.198;2022-10-24T12:16:25;20.58;;;2.50;;
37205;SDS011;23099;42.636;23.198;2022-10-24T12:19:03;20.48;;;2.60;;
37205;SDS011;23099;42.636;23.198;2022-10-24T12:21:33;16.88;;;2.60;;
37205;SDS011;23099;42.636;23.198;2022-10-24T12:24:03;21.02;;;2.83;;
37205;SDS011;23099;42.636;23.198;2022-10-24T12:29:00;21.17;;;3.10;;
37205;SDS011;23099;42.636;23.198;2022-10-24T12:31:29;23.15;;;3.10;;
37205;SDS011;23099;42.636;23.198;2022-10-24T12:36:59;20.40;;;3.78;;
37205;SDS011;23099;42.636;23.198;2022-10-24T12:39:28;32.85;;;4.65;;
37205;SDS011;23099;42.636;23.198;2022-10-24T12:41:56;22.42;;;2.88;;
37205;SDS011;23099;42.636;23.198;2022-10-24T12:47:24;19.60;;;5.72;;
37205;SDS011;23099;42.636;23.198;2022-10-24T12:50:46;22.55;;;6.88;;
37205;SDS011;23099;42.636;23.198;2022-10-24T12:53:04;20.88;;;6.35;;
37205;SDS011;23099;42.636;23.198;2022-10-24T12:58:39;19.52;;;5.63;;
37205;SDS011;23099;42.636;23.198;2022-10-24T13:01:10;17.77;;;5.50;;
37205;SDS011;23099;42.636;23.198;2022-10-24T13:03:56;18.67;;;5.90;;
37205;SDS011;23099;42.636;23.198;2022-10-24T13:06:47;20.02;;;5.53;;
37205;SDS011;23099;42.636;23.198;2022-10-24T13:09:30;23.13;;;6.40;;
37205;SDS011;23099;42.636;23.198;2022-10-24T13:12:11;19.38;;;6.35;;
37205;SDS011;23099;42.636;23.198;2022-10-24T13:14:53;19.75;;;6.03;;
37205;SDS011;23099;42.636;23.198;2022-10-24T13:17:43;16.83;;;5.45;;
37205;SDS011;23099;42.636;23.198;2022-10-24T13:20:16;23.00;;;5.90;;
37205;SDS011;23099;42.636;23.198;2022-10-24T13:22:45;21.50;;;5.90;;
37205;SDS011;23099;42.636;23.198;2022-10-24T13:25:18;19.75;;;5.20;;
37205;SDS011;23099;42.636;23.198;2022-10-24T13:34:19;15.20;;;5.90;;
37205;SDS011;23099;42.636;23.198;2022-10-24T13:36:49;19.38;;;5.20;;
37205;SDS011;23099;42.636;23.198;2022-10-24T13:39:23;17.02;;;5.20;;
37205;SDS011;23099;42.636;23.198;2022-10-24T13:41:57;20.98;;;5.10;;
37205;SDS011;23099;42.636;23.198;2022-10-24T13:44:28;20.17;;;5.35;;
37205;SDS011;23099;42.636;23.198;2022-10-24T13:47:02;18.00;;;5.90;;
37205;SDS011;23099;42.636;23.198;2022-10-24T13:49:40;23.48;;;5.30;;
37205;SDS011;23099;42.636;23.198;2022-10-24T13:52:14;21.25;;;5.50;;
37205;SDS011;23099;42.636;23.198;2022-10-24T13:54:45;21.40;;;5.07;;
37205;SDS011;23099;42.636;23.198;2022-10-24T13:57:22;24.17;;;5.38;;
37205;SDS011;23099;42.636;23.198;2022-10-24T13:59:58;16.02;;;4.78;;
37205;SDS011;23099;42.636;23.198;2022-10-24T14:02:27;19.80;;;5.63;;
37205;SDS011;23099;42.636;23.198;2022-10-24T14:04:58;17.85;;;5.00;;
37205;SDS011;23099;42.636;23.198;2022-10-24T14:07:27;16.55;;;4.95;;
37205;SDS011;23099;42.636;23.198;2022-10-24T14:10:00;25.88;;;5.30;;
37205;SDS011;23099;42.636;23.198;2022-10-24T14:12:30;18.35;;;4.80;;
37205;SDS011;23099;42.636;23.198;2022-10-24T14:14:58;16.83;;;5.30;;
37205;SDS011;23099;42.636;23.198;2022-10-24T14:17:28;21.88;;;5.03;;
37205;SDS011;23099;42.636;23.198;2022-10-24T14:19:57;20.67;;;5.15;;
37205;SDS011;23099;42.636;23.198;2022-10-24T14:22:27;16.20;;;5.07;;
37205;SDS011;23099;42.636;23.198;2022-10-24T14:25:00;20.25;;;5.13;;
37205;SDS011;23099;42.636;23.198;2022-10-24T14:27:27;22.98;;;4.95;;
37205;SDS011;23099;42.636;23.198;2022-10-24T14:30:00;16.80;;;4.75;;
37205;SDS011;23099;42.636;23.198;2022-10-24T14:32:29;14.85;;;4.88;;
37205;SDS011;23099;42.636;23.198;2022-10-24T14:34:56;17.88;;;4.80;;
37205;SDS011;23099;42.636;23.198;2022-10-24T14:39:54;19.15;;;4.97;;
37205;SDS011;23099;42.636;23.198;2022-10-24T14:42:21;13.70;;;4.75;;
37205;SDS011;23099;42.636;23.198;2022-10-24T14:44:49;15.13;;;4.90;;
37205;SDS011;23099;42.636;23.198;2022-10-24T14:47:19;18.95;;;5.10;;
37205;SDS011;23099;42.636;23.198;2022-10-24T14:49:52;13.77;;;4.60;;
37205;SDS011;23099;42.636;23.198;2022-10-24T14:52:27;19.13;;;5.63;;
37205;SDS011;23099;42.636;23.198;2022-10-24T14:55:01;16.45;;;4.28;;
37205;SDS011;23099;42.636;23.198;2022-10-24T14:57:30;15.60;;;4.55;;
37205;SDS011;23099;42.636;23.198;2022-10-24T14:59:59;19.65;;;4.68;;
37205;SDS011;23099;42.636;23.198;2022-10-24T15:02:31;18.25;;;5.28;;
37205;SDS011;23099;42.636;23.198;2022-10-24T15:07:54;18.42;;;5.10;;
37205;SDS011;23099;42.636;23.198;2022-10-24T15:10:30;21.30;;;6.47;;
37205;SDS011;23099;42.636;23.198;2022-10-24T15:13:01;20.90;;;6.50;;
37205;SDS011;23099;42.636;23.198;2022-10-24T15:15:30;19.48;;;6.50;;
37205;SDS011;23099;42.636;23.198;2022-10-24T15:18:05;22.15;;;7.57;;